Time;durP1;ratioP1;P1;durP2;ratioP2;P2;SDS_P1;SDS_P2;PMS_P1;PMS_P2;Temp;Humidity;BMP_temperature;BMP_pressure;BME280_temperature;BME280_humidity;BME280_pressure;Samples;Min_cycle;Max_cycle;Signal;HPM_P1;HPM_P2
2022/12/08 00:00:21;;;;;;;;;;;16.40;43.90;;;;;;5070253;28;19927;-69
2022/12/08 00:02:46;;;;;;;;;;;16.40;43.90;;;;;;5071789;28;19999;-68
2022/12/08 00:10:43;;;;;;;;;;;16.40;43.90;;;;;;5069102;28;19931;-68
2022/12/08 00:13:09;;;;;;;;;;;16.70;43.70;;;;;;5071545;28;19927;-68
2022/12/08 00:15:35;;;;;;;;;;;17.10;43.00;;;;;;5072286;28;19920;-68
2022/12/08 00:18:01;;;;;;;;;;;17.50;42.30;;;;;;5070167;28;19921;-68
2022/12/08 00:20:26;;;;;;;;;;;18.00;41.40;;;;;;5070323;28;19921;-68
2022/12/08 00:22:52;;;;;;;;;;;18.60;40.30;;;;;;5070565;28;19997;-68
2022/12/08 00:25:17;;;;;;;;;;;19.30;39.20;;;;;;5070055;28;19921;-68
2022/12/08 00:27:43;;;;;;;;;;;20.10;38.00;;;;;;5070573;28;19954;-68
2022/12/08 00:30:09;;;;;;;;;;;20.80;36.80;;;;;;5069893;28;19931;-68
2022/12/08 00:32:35;;;;;;;;;;;21.40;35.70;;;;;;5069750;28;19939;-68
2022/12/08 00:35:01;;;;;;;;;;;22.10;34.80;;;;;;5071345;28;19934;-68
2022/12/08 00:37:26;;;;;;;;;;;22.50;34.00;;;;;;5069983;28;20019;-68
2022/12/08 00:39:52;;;;;;;;;;;22.90;33.30;;;;;;5069703;28;20394;-70
2022/12/08 00:42:18;;;;;;;;;;;23.20;32.80;;;;;;5069559;28;19950;-69
2022/12/08 00:44:44;;;;;;;;;;;23.50;32.40;;;;;;5069653;28;19936;-70
2022/12/08 00:47:10;;;;;;;;;;;23.80;32.00;;;;;;5069558;28;19977;-69
2022/12/08 00:49:36;;;;;;;;;;;23.90;31.70;;;;;;5069417;28;19943;-69
2022/12/08 00:52:02;;;;;;;;;;;24.10;31.50;;;;;;5070789;28;20387;-69
2022/12/08 00:54:27;;;;;;;;;;;24.30;31.30;;;;;;5070041;28;19927;-70
2022/12/08 00:56:53;;;;;;;;;;;24.40;31.10;;;;;;5069846;28;20006;-69
2022/12/08 00:59:18;;;;;;;;;;;24.50;31.00;;;;;;5070526;28;19949;-69
2022/12/08 01:01:44;;;;;;;;;;;24.50;30.90;;;;;;5070020;28;20316;-70
2022/12/08 01:04:12;;;;;;;;;;;24.60;30.80;;;;;;5070453;28;19924;-70
2022/12/08 01:06:38;;;;;;;;;;;24.60;30.70;;;;;;5068965;28;19928;-69
2022/12/08 01:09:04;;;;;;;;;;;24.60;30.70;;;;;;5068899;28;19924;-69
2022/12/08 01:11:30;;;;;;;;;;;24.70;30.70;;;;;;5068096;28;19939;-69
2022/12/08 01:13:55;;;;;;;;;;;24.60;30.60;;;;;;5070619;28;20007;-69
2022/12/08 01:16:22;;;;;;;;;;;24.60;30.70;;;;;;5069189;28;20682;-70
2022/12/08 01:18:48;;;;;;;;;;;24.50;30.80;;;;;;5070592;28;19947;-71
2022/12/08 01:21:13;;;;;;;;;;;24.40;31.00;;;;;;5068882;28;19928;-70
2022/12/08 01:23:39;;;;;;;;;;;24.30;31.10;;;;;;5069195;28;19946;-69
2022/12/08 01:26:05;;;;;;;;;;;24.30;31.20;;;;;;5068821;28;19930;-69
2022/12/08 01:28:31;;;;;;;;;;;24.30;31.20;;;;;;5068351;28;20034;-69
2022/12/08 01:30:57;;;;;;;;;;;24.30;31.20;;;;;;5069774;28;20051;-69
2022/12/08 01:33:23;;;;;;;;;;;24.30;31.20;;;;;;5070219;28;19920;-69
2022/12/08 01:35:48;;;;;;;;;;;24.30;31.10;;;;;;5069234;28;19994;-69
2022/12/08 01:38:14;;;;;;;;;;;24.30;31.00;;;;;;5068941;28;19995;-69
2022/12/08 01:40:39;;;;;;;;;;;24.40;31.00;;;;;;5069921;28;20403;-69
2022/12/08 01:43:05;;;;;;;;;;;24.40;31.00;;;;;;5068707;28;19920;-69
2022/12/08 01:45:31;;;;;;;;;;;24.50;30.90;;;;;;5068767;28;19921;-69
2022/12/08 01:47:59;;;;;;;;;;;24.40;30.90;;;;;;5067948;28;19925;-69
2022/12/08 01:50:25;;;;;;;;;;;24.40;30.90;;;;;;5069948;28;20467;-69
2022/12/08 01:52:53;;;;;;;;;;;24.40;30.90;;;;;;5084789;28;19920;-69
2022/12/08 01:55:23;;;;;;;;;;;24.30;31.00;;;;;;5069998;28;19920;-69
2022/12/08 01:57:51;;;;;;;;;;;24.30;31.20;;;;;;5069690;28;19965;-69
2022/12/08 02:00:18;;;;;;;;;;;24.20;31.10;;;;;;5066490;28;20015;-69
2022/12/08 02:03:03;;;;;;;;;;;24.20;31.20;;;;;;5068669;28;20015;-70
2022/12/08 02:05:31;;;;;;;;;;;24.10;31.20;;;;;;5067640;28;19920;-69
2022/12/08 02:07:57;;;;;;;;;;;24.10;31.40;;;;;;5068074;28;19963;-69
2022/12/08 02:10:24;;;;;;;;;;;24.00;31.40;;;;;;5068127;28;19928;-69
2022/12/08 02:12:51;;;;;;;;;;;24.00;31.50;;;;;;5069229;28;20380;-69
2022/12/08 02:15:17;;;;;;;;;;;23.90;31.50;;;;;;5068884;28;19929;-69
2022/12/08 02:20:32;;;;;;;;;;;23.90;32.20;;;;;;5107374;27;20403;-67
2022/12/08 02:23:03;;;;;;;;;;;23.90;31.50;;;;;;5086233;28;19921;-67
2022/12/08 02:25:49;;;;;;;;;;;23.90;31.50;;;;;;5087063;28;20027;-67
2022/12/08 02:28:34;;;;;;;;;;;23.90;31.50;;;;;;5084448;28;20380;-67
2022/12/08 02:31:20;;;;;;;;;;;24.00;31.50;;;;;;5086621;28;19970;-67
2022/12/08 02:36:30;;;;;;;;;;;24.00;31.60;;;;;;5104727;27;1862666;-67
2022/12/08 02:39:02;;;;;;;;;;;24.00;31.50;;;;;;5169026;27;20279;-67
2022/12/08 02:44:22;;;;;;;;;;;24.00;30.90;;;;;;5107251;27;19916;-67
2022/12/08 02:46:53;;;;;;;;;;;24.00;31.50;;;;;;5086812;28;20359;-67
2022/12/08 02:49:18;;;;;;;;;;;24.00;31.50;;;;;;5085558;28;19931;-67
2022/12/08 02:51:44;;;;;;;;;;;24.00;31.50;;;;;;5087949;28;20322;-67
2022/12/08 02:54:09;;;;;;;;;;;24.00;31.40;;;;;;5086962;28;19920;-67
2022/12/08 02:59:39;;;;;;;;;;;24.10;31.50;;;;;;5107013;27;19923;-68
2022/12/08 03:02:14;;;;;;;;;;;24.00;31.40;;;;;;5105618;28;20387;-69
2022/12/08 03:07:24;;;;;;;;;;;24.10;31.50;;;;;;5107274;27;20272;-67
2022/12/08 03:12:48;;;;;;;;;;;24.00;31.50;;;;;;5113729;27;1863643;-67
2022/12/08 03:15:16;;;;;;;;;;;23.90;31.60;;;;;;5180437;27;19918;-67
2022/12/08 03:17:44;;;;;;;;;;;23.90;31.70;;;;;;5158148;27;19984;-67
2022/12/08 03:20:12;;;;;;;;;;;23.80;31.80;;;;;;5160164;27;19919;-67
2022/12/08 03:22:38;;;;;;;;;;;23.70;31.80;;;;;;5159997;27;19974;-67
2022/12/08 03:25:04;;;;;;;;;;;23.70;31.80;;;;;;5158287;27;19919;-68
2022/12/08 03:27:30;;;;;;;;;;;23.70;31.80;;;;;;5157852;27;19925;-67
2022/12/08 03:29:56;;;;;;;;;;;23.80;31.90;;;;;;5158842;27;19919;-67
2022/12/08 03:32:28;;;;;;;;;;;23.80;31.80;;;;;;5179036;27;19941;-67
2022/12/08 03:34:55;;;;;;;;;;;23.80;31.80;;;;;;5176605;27;20022;-67
2022/12/08 03:37:21;;;;;;;;;;;23.80;31.80;;;;;;5176447;27;19926;-67
2022/12/08 03:39:47;;;;;;;;;;;23.90;31.80;;;;;;5159226;27;20309;-68
2022/12/08 03:42:12;;;;;;;;;;;23.90;31.70;;;;;;5179040;27;19987;-67
2022/12/08 03:44:38;;;;;;;;;;;23.90;31.70;;;;;;5157953;27;19981;-67
2022/12/08 03:47:03;;;;;;;;;;;23.90;31.60;;;;;;5159052;27;19941;-67
2022/12/08 03:49:29;;;;;;;;;;;23.90;31.60;;;;;;5178252;27;19941;-68
2022/12/08 03:51:54;;;;;;;;;;;23.90;31.60;;;;;;5176706;27;19952;-68
2022/12/08 03:54:20;;;;;;;;;;;23.90;31.50;;;;;;5159872;27;19925;-68
2022/12/08 03:56:45;;;;;;;;;;;24.00;31.60;;;;;;5155724;27;20332;-67
2022/12/08 03:59:11;;;;;;;;;;;23.90;31.50;;;;;;5160971;27;19919;-67
2022/12/08 04:01:36;;;;;;;;;;;23.90;31.50;;;;;;5176287;27;19933;-68
2022/12/08 04:04:02;;;;;;;;;;;23.90;31.60;;;;;;5176981;27;20409;-68
2022/12/08 04:06:27;;;;;;;;;;;23.90;31.50;;;;;;5160620;27;19925;-68
2022/12/08 04:08:53;;;;;;;;;;;23.90;31.70;;;;;;5157248;27;20301;-67
2022/12/08 04:11:19;;;;;;;;;;;23.90;31.60;;;;;;5176091;27;19986;-69
2022/12/08 04:13:45;;;;;;;;;;;23.80;31.70;;;;;;5178640;27;20366;-67
2022/12/08 04:16:14;;;;;;;;;;;23.80;31.80;;;;;;5175956;27;19926;-68
2022/12/08 04:18:39;;;;;;;;;;;23.80;31.80;;;;;;5158834;27;19919;-69
2022/12/08 04:21:05;;;;;;;;;;;23.70;31.80;;;;;;5159014;27;19925;-68
2022/12/08 04:23:30;;;;;;;;;;;23.70;31.90;;;;;;5165185;27;19919;-67
2022/12/08 04:25:56;;;;;;;;;;;23.70;31.90;;;;;;5137437;27;20378;-68
2022/12/08 04:28:21;;;;;;;;;;;23.70;31.90;;;;;;5163419;27;19926;-68
2022/12/08 04:30:47;;;;;;;;;;;23.70;31.90;;;;;;5142474;27;19927;-68
2022/12/08 04:33:13;;;;;;;;;;;23.70;31.90;;;;;;5142971;27;19926;-68
2022/12/08 04:35:38;;;;;;;;;;;23.70;31.90;;;;;;5163012;27;19920;-68
2022/12/08 04:38:04;;;;;;;;;;;23.70;31.90;;;;;;5164240;27;19922;-67
2022/12/08 04:40:29;;;;;;;;;;;23.70;31.90;;;;;;5161377;27;19954;-68
2022/12/08 04:42:55;;;;;;;;;;;23.70;32.00;;;;;;5144734;27;20381;-68
2022/12/08 04:45:20;;;;;;;;;;;23.60;31.90;;;;;;5164244;27;19926;-67
2022/12/08 04:47:46;;;;;;;;;;;23.60;31.90;;;;;;5142853;27;19923;-67
2022/12/08 04:50:12;;;;;;;;;;;23.70;31.90;;;;;;5143970;27;19919;-67
2022/12/08 04:52:37;;;;;;;;;;;23.70;31.90;;;;;;5163007;27;19933;-67
2022/12/08 04:55:03;;;;;;;;;;;23.70;31.90;;;;;;5161883;27;19925;-67
2022/12/08 04:57:29;;;;;;;;;;;23.70;31.90;;;;;;5160850;27;20291;-67
2022/12/08 04:59:54;;;;;;;;;;;23.70;31.90;;;;;;5143648;27;19926;-67
2022/12/08 05:02:20;;;;;;;;;;;23.70;32.60;;;;;;5145744;27;20365;-67
2022/12/08 05:04:46;;;;;;;;;;;23.70;31.90;;;;;;5142765;27;19931;-69
2022/12/08 05:07:11;;;;;;;;;;;23.70;31.90;;;;;;5143521;27;19926;-67
2022/12/08 05:09:37;;;;;;;;;;;23.70;31.80;;;;;;5163421;27;19922;-67
2022/12/08 05:12:03;;;;;;;;;;;23.80;31.90;;;;;;5136173;27;20314;-69
2022/12/08 05:14:28;;;;;;;;;;;23.80;31.80;;;;;;5162009;27;19919;-67
2022/12/08 05:16:54;;;;;;;;;;;23.80;31.70;;;;;;5161195;27;19979;-67
2022/12/08 05:19:19;;;;;;;;;;;23.80;31.70;;;;;;5145519;27;19918;-67
2022/12/08 05:21:45;;;;;;;;;;;23.90;31.70;;;;;;5143001;27;19926;-68
2022/12/08 05:24:10;;;;;;;;;;;23.90;31.60;;;;;;5142196;27;19926;-68
2022/12/08 05:26:36;;;;;;;;;;;24.00;31.60;;;;;;5145343;27;19962;-67
2022/12/08 05:29:02;;;;;;;;;;;24.00;31.50;;;;;;5142141;27;19991;-67
2022/12/08 05:31:27;;;;;;;;;;;24.00;31.40;;;;;;5160892;27;19927;-69
2022/12/08 05:33:53;;;;;;;;;;;24.00;31.50;;;;;;5144236;27;19930;-67
2022/12/08 05:36:19;;;;;;;;;;;24.00;31.50;;;;;;5160256;27;20011;-67
2022/12/08 05:38:45;;;;;;;;;;;24.00;31.40;;;;;;5142753;27;20430;-67
2022/12/08 05:41:13;;;;;;;;;;;24.00;31.50;;;;;;5163333;27;20285;-67
2022/12/08 05:43:38;;;;;;;;;;;23.90;31.40;;;;;;5133911;27;19968;-67
2022/12/08 05:46:04;;;;;;;;;;;24.00;31.50;;;;;;5143424;27;20545;-67
2022/12/08 05:48:29;;;;;;;;;;;24.00;31.60;;;;;;5144034;27;19918;-68
2022/12/08 05:50:55;;;;;;;;;;;23.80;31.60;;;;;;5141438;27;19930;-67
2022/12/08 05:53:21;;;;;;;;;;;23.80;31.70;;;;;;5143192;27;19919;-67
2022/12/08 05:55:46;;;;;;;;;;;23.70;31.80;;;;;;5162026;27;19925;-68
2022/12/08 05:58:13;;;;;;;;;;;23.70;31.80;;;;;;5141293;27;19925;-67
2022/12/08 06:00:39;;;;;;;;;;;23.60;31.90;;;;;;5159690;27;19927;-67
2022/12/08 06:03:04;;;;;;;;;;;23.60;32.00;;;;;;5142741;27;19941;-67
2022/12/08 06:05:31;;;;;;;;;;;23.50;32.00;;;;;;5144265;27;20370;-67
2022/12/08 06:07:57;;;;;;;;;;;23.40;32.10;;;;;;5141045;27;19919;-67
2022/12/08 06:10:22;;;;;;;;;;;23.40;32.20;;;;;;5142064;27;19929;-67
2022/12/08 06:12:48;;;;;;;;;;;23.40;32.30;;;;;;5142932;27;19929;-69
2022/12/08 06:15:13;;;;;;;;;;;23.30;32.30;;;;;;5159724;27;19931;-67
2022/12/08 06:17:39;;;;;;;;;;;23.30;32.30;;;;;;5143338;27;19933;-68
2022/12/08 06:20:05;;;;;;;;;;;23.30;32.30;;;;;;5161853;27;19919;-68
2022/12/08 06:22:30;;;;;;;;;;;23.30;32.40;;;;;;5141414;27;19919;-69
2022/12/08 06:24:56;;;;;;;;;;;23.30;32.40;;;;;;5135250;27;20378;-68
2022/12/08 06:27:21;;;;;;;;;;;23.30;32.30;;;;;;5161369;27;19926;-67
2022/12/08 06:29:47;;;;;;;;;;;23.40;32.30;;;;;;5158601;27;19948;-67
2022/12/08 06:32:12;;;;;;;;;;;23.30;32.30;;;;;;5153475;27;19923;-67
2022/12/08 06:34:38;;;;;;;;;;;23.30;32.50;;;;;;5140427;27;19919;-66
2022/12/08 06:37:03;;;;;;;;;;;23.10;32.90;;;;;;5161234;27;19925;-65
2022/12/08 06:39:29;;;;;;;;;;;23.00;33.30;;;;;;5152720;27;19941;-67
2022/12/08 06:44:40;;;;;;;;;;;22.80;33.70;;;;;;5156674;27;19923;-68
2022/12/08 06:47:05;;;;;;;;;;;23.00;33.90;;;;;;5140506;27;19960;-69
2022/12/08 06:49:31;;;;;;;;;;;23.30;33.80;;;;;;5160370;27;19923;-67
2022/12/08 06:51:56;;;;;;;;;;;23.70;33.70;;;;;;5132887;27;20389;-67
2022/12/08 06:54:22;;;;;;;;;;;24.30;33.40;;;;;;5130193;27;19927;-67
2022/12/08 06:56:47;;;;;;;;;;;24.30;32.50;;;;;;5153133;27;19923;-67
2022/12/08 06:59:13;;;;;;;;;;;24.10;32.30;;;;;;5127499;27;19930;-67
2022/12/08 07:01:38;;;;;;;;;;;23.90;32.60;;;;;;5150675;27;19919;-67
2022/12/08 07:04:04;;;;;;;;;;;23.70;33.00;;;;;;5131078;27;19930;-66
2022/12/08 07:06:29;;;;;;;;;;;23.50;33.30;;;;;;5153414;27;19919;-66
2022/12/08 07:08:55;;;;;;;;;;;23.30;33.40;;;;;;5146162;27;19934;-66
2022/12/08 07:11:20;;;;;;;;;;;23.20;33.30;;;;;;5135848;27;19923;-66
2022/12/08 07:13:46;;;;;;;;;;;23.10;33.50;;;;;;5144827;27;20004;-66
2022/12/08 07:16:11;;;;;;;;;;;23.20;33.70;;;;;;5145584;27;19923;-66
2022/12/08 07:18:37;;;;;;;;;;;23.40;33.70;;;;;;5145503;27;19937;-66
2022/12/08 07:21:03;;;;;;;;;;;23.50;33.50;;;;;;5141779;27;19923;-66
2022/12/08 07:23:29;;;;;;;;;;;23.60;33.30;;;;;;5126498;27;19967;-66
2022/12/08 07:25:54;;;;;;;;;;;23.70;33.10;;;;;;5117849;27;19923;-66
2022/12/08 07:28:20;;;;;;;;;;;23.80;33.00;;;;;;5093155;27;20031;-67
2022/12/08 07:30:45;;;;;;;;;;;23.90;33.00;;;;;;5128911;27;19935;-66
2022/12/08 07:33:11;;;;;;;;;;;23.90;33.00;;;;;;5120252;27;20568;-66
2022/12/08 07:35:36;;;;;;;;;;;24.00;33.00;;;;;;5134210;27;19929;-66
2022/12/08 07:38:02;;;;;;;;;;;24.10;33.00;;;;;;5109553;27;20466;-66
2022/12/08 07:40:27;;;;;;;;;;;24.00;32.90;;;;;;5131389;27;19976;-66
2022/12/08 07:42:53;;;;;;;;;;;24.00;33.00;;;;;;5128974;27;20008;-66
2022/12/08 07:45:18;;;;;;;;;;;23.90;33.30;;;;;;5134848;27;20060;-66
2022/12/08 07:47:44;;;;;;;;;;;23.70;33.40;;;;;;5109326;27;20031;-66
2022/12/08 07:50:09;;;;;;;;;;;23.70;33.60;;;;;;5115264;27;20350;-65
2022/12/08 07:52:35;;;;;;;;;;;23.50;33.60;;;;;;5115925;27;19984;-66
2022/12/08 07:55:01;;;;;;;;;;;23.40;33.80;;;;;;5113523;27;19931;-66
2022/12/08 07:57:26;;;;;;;;;;;23.40;33.90;;;;;;5119729;27;19968;-66
2022/12/08 07:59:52;;;;;;;;;;;23.30;34.10;;;;;;5121440;27;19968;-66
2022/12/08 08:02:18;;;;;;;;;;;23.30;34.30;;;;;;5133521;27;19952;-66
2022/12/08 08:04:43;;;;;;;;;;;23.20;34.30;;;;;;5124290;27;21211;-65
2022/12/08 08:07:09;;;;;;;;;;;23.30;34.50;;;;;;5132780;27;19923;-66
2022/12/08 08:09:34;;;;;;;;;;;23.40;34.30;;;;;;5135252;27;19923;-67
2022/12/08 08:12:00;;;;;;;;;;;23.60;34.20;;;;;;5133289;27;20021;-66
2022/12/08 08:14:26;;;;;;;;;;;23.90;33.70;;;;;;5136586;27;19958;-66
2022/12/08 08:16:51;;;;;;;;;;;24.10;33.80;;;;;;5116329;27;20777;-66
2022/12/08 08:19:17;;;;;;;;;;;24.10;33.60;;;;;;5135336;27;19996;-65
2022/12/08 08:21:43;;;;;;;;;;;24.30;33.40;;;;;;5122439;27;19919;-64
2022/12/08 08:24:09;;;;;;;;;;;24.70;33.10;;;;;;5121143;27;19926;-65
2022/12/08 08:26:35;;;;;;;;;;;24.80;32.80;;;;;;5116894;27;20571;-64
2022/12/08 08:29:00;;;;;;;;;;;24.80;32.40;;;;;;5135020;27;19999;-63
2022/12/08 08:31:26;;;;;;;;;;;24.30;32.60;;;;;;5134008;27;20184;-64
2022/12/08 08:33:51;;;;;;;;;;;23.90;33.50;;;;;;5132703;27;19999;-66
2022/12/08 08:36:17;;;;;;;;;;;23.60;34.10;;;;;;5132980;27;20030;-66
2022/12/08 08:38:43;;;;;;;;;;;23.60;34.40;;;;;;5118895;27;19923;-65
2022/12/08 08:41:09;;;;;;;;;;;24.20;34.00;;;;;;5122423;27;19926;-65
2022/12/08 08:43:35;;;;;;;;;;;24.60;33.30;;;;;;5117106;27;20019;-66
2022/12/08 08:46:02;;;;;;;;;;;24.70;33.00;;;;;;5123338;27;20018;-65
2022/12/08 08:48:28;;;;;;;;;;;25.10;33.00;;;;;;5133929;27;19930;-66
2022/12/08 08:50:54;;;;;;;;;;;25.70;32.30;;;;;;5134653;27;19986;-67
2022/12/08 08:53:20;;;;;;;;;;;26.30;31.80;;;;;;5112693;27;19962;-66
2022/12/08 08:55:45;;;;;;;;;;;26.80;31.20;;;;;;5133896;27;19938;-66
2022/12/08 08:58:11;;;;;;;;;;;27.10;30.80;;;;;;5134195;27;19954;-66
2022/12/08 09:00:37;;;;;;;;;;;27.40;30.60;;;;;;5134400;27;20116;-64
2022/12/08 09:03:02;;;;;;;;;;;27.50;30.10;;;;;;5112493;27;19923;-64
2022/12/08 09:05:28;;;;;;;;;;;27.10;30.00;;;;;;5133071;27;20331;-71
2022/12/08 09:07:53;;;;;;;;;;;26.60;30.20;;;;;;5131832;27;19919;-67
2022/12/08 09:10:19;;;;;;;;;;;26.40;30.90;;;;;;5132119;27;19919;-70
2022/12/08 09:12:44;;;;;;;;;;;26.60;31.00;;;;;;5114923;27;20364;-68
2022/12/08 09:15:10;;;;;;;;;;;26.90;30.70;;;;;;5134262;27;19970;-69
2022/12/08 09:17:35;;;;;;;;;;;27.00;30.60;;;;;;5114897;27;20005;-65
2022/12/08 09:20:01;;;;;;;;;;;27.10;30.40;;;;;;5132163;27;19919;-65
2022/12/08 09:22:27;;;;;;;;;;;26.90;30.10;;;;;;5134058;27;19933;-64
2022/12/08 09:24:52;;;;;;;;;;;26.30;30.30;;;;;;5116247;27;19923;-70
2022/12/08 09:27:18;;;;;;;;;;;25.80;31.10;;;;;;5129974;27;20014;-66
2022/12/08 09:29:43;;;;;;;;;;;25.80;31.40;;;;;;5135452;27;20022;-65
2022/12/08 09:32:09;;;;;;;;;;;25.90;31.30;;;;;;5131945;27;19924;-66
2022/12/08 09:34:35;;;;;;;;;;;25.90;31.30;;;;;;5133261;27;19923;-70
2022/12/08 09:37:00;;;;;;;;;;;26.10;31.40;;;;;;5117087;27;19975;-66
2022/12/08 09:39:26;;;;;;;;;;;26.40;31.10;;;;;;5134939;27;19924;-70
2022/12/08 09:41:56;;;;;;;;;;;26.70;30.80;;;;;;5119672;27;20578;-69
2022/12/08 09:44:43;;;;;;;;;;;27.00;30.50;;;;;;5117799;27;19923;-66
2022/12/08 09:47:26;;;;;;;;;;;27.10;30.20;;;;;;5119478;27;19919;-67
2022/12/08 09:50:11;;;;;;;;;;;27.20;30.20;;;;;;5126050;27;20019;-67
2022/12/08 09:52:39;;;;;;;;;;;27.00;30.20;;;;;;5116659;27;20012;-67
2022/12/08 09:55:12;;;;;;;;;;;26.80;31.10;;;;;;5109014;27;19923;-69
2022/12/08 09:57:38;;;;;;;;;;;26.60;30.50;;;;;;5109499;27;19927;-68
2022/12/08 10:00:04;;;;;;;;;;;26.40;30.60;;;;;;5123948;27;19927;-66
2022/12/08 10:02:29;;;;;;;;;;;26.30;30.80;;;;;;5121072;27;19933;-66
2022/12/08 10:04:56;;;;;;;;;;;26.10;30.90;;;;;;5110824;27;19931;-66
2022/12/08 10:07:42;;;;;;;;;;;26.00;31.10;;;;;;5116589;27;19919;-67
2022/12/08 10:10:27;;;;;;;;;;;25.80;31.20;;;;;;5128378;27;19927;-67
2022/12/08 10:12:56;;;;;;;;;;;25.40;31.80;;;;;;5108627;27;19927;-66
2022/12/08 10:15:42;;;;;;;;;;;24.90;32.60;;;;;;5132753;27;19919;-66
2022/12/08 10:18:12;;;;;;;;;;;24.60;33.30;;;;;;5126784;27;19927;-67
2022/12/08 10:20:40;;;;;;;;;;;24.30;33.80;;;;;;5103387;27;19927;-66
2022/12/08 10:25:49;;;;;;;;;;;23.90;34.50;;;;;;5062425;27;1896074;-64
2022/12/08 10:28:14;;;;;;;;;;;23.70;35.00;;;;;;5126390;27;19927;-64
2022/12/08 10:30:40;;;;;;;;;;;23.30;35.50;;;;;;5103322;27;20275;-65
2022/12/08 10:33:09;;;;;;;;;;;22.90;36.20;;;;;;5108776;27;20030;-65
2022/12/08 10:35:42;;;;;;;;;;;22.70;36.80;;;;;;5113078;27;19931;-66
2022/12/08 10:38:14;;;;;;;;;;;22.40;37.20;;;;;;5110143;27;19968;-66
2022/12/08 10:40:42;;;;;;;;;;;22.20;37.80;;;;;;5122329;27;19923;-65
2022/12/08 10:43:12;;;;;;;;;;;22.10;38.30;;;;;;5133527;27;19926;-66
2022/12/08 10:45:42;;;;;;;;;;;22.10;38.60;;;;;;5115476;27;20370;-68
2022/12/08 10:50:56;;;;;;;;;;;22.50;38.40;;;;;;5052537;28;20381;-66
2022/12/08 10:53:26;;;;;;;;;;;22.90;37.90;;;;;;5053898;28;19968;-66
2022/12/08 10:56:04;;;;;;;;;;;23.20;37.50;;;;;;5052057;28;19990;-66
2022/12/08 11:01:15;;;;;;;;;;;24.30;36.20;;;;;;5084635;27;19916;-67
2022/12/08 11:03:57;;;;;;;;;;;24.70;35.50;;;;;;5071093;28;19920;-66
2022/12/08 11:06:29;;;;;;;;;;;25.00;35.30;;;;;;5083583;28;19924;-67
2022/12/08 11:11:38;;;;;;;;;;;25.20;34.80;;;;;;5060941;27;1873054;-65
2022/12/08 11:14:05;;;;;;;;;;;25.00;34.80;;;;;;5114414;27;19930;-66
2022/12/08 11:16:31;;;;;;;;;;;24.70;35.10;;;;;;5115218;27;20103;-68
2022/12/08 11:18:57;;;;;;;;;;;24.50;35.40;;;;;;5105863;27;20038;-69
2022/12/08 11:21:30;;;;;;;;;;;24.30;35.60;;;;;;5106962;27;19920;-68
2022/12/08 11:23:55;;;;;;;;;;;24.00;35.80;;;;;;5128016;27;20397;-65
2022/12/08 11:26:27;;;;;;;;;;;23.40;36.50;;;;;;5110164;27;20014;-69
2022/12/08 11:28:53;;;;;;;;;;;22.90;36.80;;;;;;5126779;27;19923;-68
2022/12/08 11:31:24;;;;;;;;;;;22.40;37.30;;;;;;5114194;27;20397;-69
2022/12/08 11:33:50;;;;;;;;;;;22.00;37.70;;;;;;5109523;27;20064;-68
2022/12/08 11:36:16;;;;;;;;;;;21.70;38.20;;;;;;5128338;27;20019;-68
2022/12/08 11:38:44;;;;;;;;;;;21.50;38.60;;;;;;5112154;27;19934;-68
2022/12/08 11:41:12;;;;;;;;;;;21.20;39.00;;;;;;5109746;27;20272;-68
2022/12/08 11:46:26;;;;;;;;;;;20.80;39.70;;;;;;5085809;27;1863039;-67
2022/12/08 11:48:53;;;;;;;;;;;20.70;40.10;;;;;;5132707;27;20410;-67
2022/12/08 11:51:27;;;;;;;;;;;20.70;40.30;;;;;;5136376;27;19923;-68
2022/12/08 11:56:34;;;;;;;;;;;20.50;40.90;;;;;;5079819;27;1865447;-69
2022/12/08 11:59:01;;;;;;;;;;;20.40;41.10;;;;;;5097026;27;19923;-67
2022/12/08 12:01:27;;;;;;;;;;;20.40;41.30;;;;;;5125649;27;19976;-66
2022/12/08 12:06:52;;;;;;;;;;;20.30;41.50;;;;;;5056367;28;19921;-65
2022/12/08 12:09:25;;;;;;;;;;;20.20;41.40;;;;;;5065422;28;19952;-66
2022/12/08 12:14:51;;;;;;;;;;;20.10;41.50;;;;;;5069609;28;20386;-66
2022/12/08 12:17:36;;;;;;;;;;;20.00;41.50;;;;;;5081758;28;20283;-66
2022/12/08 12:20:04;;;;;;;;;;;20.00;42.00;;;;;;5066242;28;20265;-67
2022/12/08 12:22:32;;;;;;;;;;;19.90;42.30;;;;;;5067161;28;19988;-66
2022/12/08 12:24:57;;;;;;;;;;;19.90;42.70;;;;;;5065543;28;19943;-67
2022/12/08 12:30:07;;;;;;;;;;;19.80;43.30;;;;;;5125989;27;20382;-67
2022/12/08 12:32:42;;;;;;;;;;;19.70;43.50;;;;;;5109383;28;20673;-68
2022/12/08 12:35:14;;;;;;;;;;;19.60;43.70;;;;;;5110060;28;19923;-68
2022/12/08 12:37:41;;;;;;;;;;;19.60;43.90;;;;;;5112659;28;20040;-68
2022/12/08 12:40:24;;;;;;;;;;;19.60;44.40;;;;;;5093624;28;19923;-66
2022/12/08 12:45:42;;;;;;;;;;;19.60;45.00;;;;;;5107344;27;1866389;-66
2022/12/08 12:50:49;;;;;;;;;;;19.50;45.40;;;;;;5055728;28;19921;-67
2022/12/08 12:56:00;;;;;;;;;;;19.60;46.00;;;;;;5058240;28;19949;-65
2022/12/08 13:04:00;;;;;;;;;;;19.50;46.00;;;;;;5070774;27;19920;-66
2022/12/08 13:06:43;;;;;;;;;;;19.50;46.10;;;;;;5052948;28;20299;-68
2022/12/08 13:09:28;;;;;;;;;;;19.50;46.20;;;;;;5039191;28;19932;-67
2022/12/08 13:11:55;;;;;;;;;;;19.40;46.30;;;;;;5045948;28;19924;-67
2022/12/08 13:14:40;;;;;;;;;;;19.40;46.50;;;;;;5052352;28;20015;-70
2022/12/08 13:17:10;;;;;;;;;;;19.40;46.60;;;;;;5052581;28;19928;-65
2022/12/08 13:19:37;;;;;;;;;;;19.40;46.80;;;;;;5051916;28;20027;-66
2022/12/08 13:22:03;;;;;;;;;;;19.40;46.80;;;;;;5052745;28;20844;-67
2022/12/08 13:24:30;;;;;;;;;;;19.30;46.80;;;;;;5051815;28;19955;-67
2022/12/08 13:30:03;;;;;;;;;;;19.30;46.60;;;;;;5053618;28;20277;-66
2022/12/08 13:32:49;;;;;;;;;;;19.20;46.50;;;;;;5047591;28;20007;-66
2022/12/08 13:35:14;;;;;;;;;;;19.20;46.70;;;;;;5063019;28;20400;-67
2022/12/08 13:37:45;;;;;;;;;;;19.20;46.90;;;;;;5051163;28;20011;-63
2022/12/08 13:40:21;;;;;;;;;;;19.30;47.30;;;;;;5049661;28;20017;-65
2022/12/08 13:42:49;;;;;;;;;;;19.40;47.50;;;;;;5054175;28;19970;-68
2022/12/08 13:45:18;;;;;;;;;;;19.40;47.70;;;;;;5051235;28;20007;-69
2022/12/08 13:48:01;;;;;;;;;;;19.40;47.80;;;;;;5048031;28;19965;-68
2022/12/08 13:53:16;;;;;;;;;;;19.60;47.80;;;;;;5101314;27;1863586;-66
2022/12/08 13:58:24;;;;;;;;;;;19.70;48.10;;;;;;5057446;28;19924;-68
2022/12/08 14:00:58;;;;;;;;;;;19.70;48.00;;;;;;5050240;28;19928;-70
2022/12/08 14:03:24;;;;;;;;;;;19.70;48.00;;;;;;5060210;28;20362;-69
2022/12/08 14:05:49;;;;;;;;;;;19.80;47.90;;;;;;5057439;28;19928;-68
2022/12/08 14:08:18;;;;;;;;;;;19.70;47.80;;;;;;5058081;28;19928;-71
2022/12/08 14:10:44;;;;;;;;;;;19.70;47.80;;;;;;5059081;28;19932;-67
2022/12/08 14:13:10;;;;;;;;;;;19.70;47.50;;;;;;5061158;28;19929;-68
2022/12/08 14:15:38;;;;;;;;;;;19.60;47.30;;;;;;5059806;28;19924;-67
2022/12/08 14:18:03;;;;;;;;;;;19.50;47.00;;;;;;5067804;28;19924;-65
2022/12/08 14:20:30;;;;;;;;;;;19.50;47.10;;;;;;5049662;28;19925;-65
2022/12/08 14:22:57;;;;;;;;;;;19.50;47.00;;;;;;5053010;28;19924;-65
2022/12/08 14:25:24;;;;;;;;;;;19.40;46.80;;;;;;5057649;28;19924;-70
2022/12/08 14:27:55;;;;;;;;;;;19.40;46.60;;;;;;5056038;28;19924;-69
2022/12/08 14:30:24;;;;;;;;;;;19.40;46.70;;;;;;5059461;28;20392;-68
2022/12/08 14:32:55;;;;;;;;;;;19.40;46.70;;;;;;5061256;28;20283;-65
2022/12/08 14:35:28;;;;;;;;;;;19.30;46.60;;;;;;5045622;28;19924;-65
2022/12/08 14:37:57;;;;;;;;;;;18.60;46.20;;;;;;5061299;28;20668;-65
2022/12/08 14:40:23;;;;;;;;;;;19.20;46.50;;;;;;5060988;28;19928;-66
2022/12/08 14:42:52;;;;;;;;;;;19.00;46.20;;;;;;5061832;28;20434;-65
2022/12/08 14:45:18;;;;;;;;;;;19.10;46.30;;;;;;5062301;28;19920;-66
2022/12/08 14:47:44;;;;;;;;;;;19.00;46.20;;;;;;5062363;28;19921;-66
2022/12/08 14:50:29;;;;;;;;;;;21.60;47.50;;;;;;5061985;28;20463;-65
2022/12/08 14:52:55;;;;;;;;;;;18.80;45.90;;;;;;5061206;28;19959;-65
2022/12/08 14:55:20;;;;;;;;;;;18.90;45.90;;;;;;5061396;28;19991;-65
2022/12/08 14:57:47;;;;;;;;;;;18.80;45.70;;;;;;5059449;28;19925;-68
2022/12/08 15:00:17;;;;;;;;;;;18.80;45.60;;;;;;5051199;28;19928;-65
2022/12/08 15:02:45;;;;;;;;;;;18.70;45.40;;;;;;5057320;28;19964;-66
2022/12/08 15:05:14;;;;;;;;;;;18.80;45.30;;;;;;5063128;28;20007;-65
2022/12/08 15:10:29;;;;;;;;;;;18.70;45.10;;;;;;5105087;27;19912;-66
2022/12/08 15:12:57;;;;;;;;;;;18.70;45.10;;;;;;5084259;28;20458;-66
2022/12/08 15:15:23;;;;;;;;;;;18.70;45.00;;;;;;5086954;28;19920;-66
2022/12/08 15:17:51;;;;;;;;;;;18.70;45.00;;;;;;5087960;28;19977;-66
2022/12/08 15:20:36;;;;;;;;;;;18.70;44.90;;;;;;5085665;28;19920;-65
2022/12/08 15:23:02;;;;;;;;;;;18.60;44.80;;;;;;5084259;28;19974;-68
2022/12/08 15:25:28;;;;;;;;;;;18.60;44.80;;;;;;5086267;28;19924;-72
2022/12/08 15:27:55;;;;;;;;;;;18.60;44.80;;;;;;5086395;28;19973;-79
2022/12/08 15:30:20;;;;;;;;;;;18.60;44.90;;;;;;5086849;28;20003;-67
2022/12/08 15:32:46;;;;;;;;;;;18.50;44.80;;;;;;5086857;28;20070;-69